Time;durP1;ratioP1;P1;durP2;ratioP2;P2;SDS_P1;SDS_P2;PMS_P1;PMS_P2;Temp;Humidity;BMP_temperature;BMP_pressure;BME280_temperature;BME280_humidity;BME280_pressure;Samples;Min_cycle;Max_cycle;Signal;HPM_P1;HPM_P2
2022/12/16 00:01:36;;;;;;;87.00;29.90;;;;;-0.40;94818.00;;;;8332535;28;20225;-72
2022/12/16 00:05:39;;;;;;;58.80;22.30;;;;;-0.30;94826.00;;;;8332122;28;20221;-72
2022/12/16 00:09:46;;;;;;;48.50;16.77;;;;;-0.30;94825.00;;;;8332419;28;20201;-72
2022/12/16 00:14:26;;;;;;;64.33;25.57;;;;;-0.40;94832.00;;;;8331989;28;20685;-72
2022/12/16 00:18:29;;;;;;;47.87;19.17;;;;;-0.40;94822.00;;;;8330458;28;20218;-72
2022/12/16 00:22:32;;;;;;;52.40;19.57;;;;;-0.40;94822.00;;;;8332091;28;20198;-72
2022/12/16 00:26:35;;;;;;;76.93;27.63;;;;;-0.40;94823.00;;;;8331589;28;20193;-72
2022/12/16 00:30:40;;;;;;;61.87;21.87;;;;;-0.40;94817.00;;;;8331615;28;20239;-72
2022/12/16 00:34:43;;;;;;;44.60;18.17;;;;;-0.40;94814.00;;;;8331254;28;20201;-72
2022/12/16 00:38:46;;;;;;;76.03;24.93;;;;;-0.40;94809.00;;;;8330206;28;20282;-71
2022/12/16 00:42:49;;;;;;;67.37;24.40;;;;;-0.40;94819.00;;;;8331513;28;20646;-71
2022/12/16 00:46:55;;;;;;;57.83;20.70;;;;;-0.40;94813.00;;;;8332131;28;20201;-71
2022/12/16 00:51:32;;;;;;;67.03;23.60;;;;;-0.40;94805.00;;;;8331369;28;20194;-71
2022/12/16 00:55:35;;;;;;;87.13;30.70;;;;;-0.40;94809.00;;;;8331639;28;20206;-71
2022/12/16 00:59:38;;;;;;;75.70;25.13;;;;;-0.40;94827.00;;;;8332005;28;20247;-71
2022/12/16 01:03:42;;;;;;;60.40;21.73;;;;;-0.40;94818.00;;;;8331190;28;20222;-71
2022/12/16 01:07:49;;;;;;;69.47;24.20;;;;;-0.40;94820.00;;;;8331554;28;20190;-70
2022/12/16 01:11:55;;;;;;;70.20;24.63;;;;;-0.40;94817.00;;;;8331935;28;20213;-70
2022/12/16 01:16:00;;;;;;;59.03;21.67;;;;;-0.40;94834.00;;;;8331370;28;20197;-70
2022/12/16 01:20:06;;;;;;;57.63;21.40;;;;;-0.40;94831.00;;;;8330447;28;20221;-70
2022/12/16 01:24:40;;;;;;;50.87;17.70;;;;;-0.30;94826.00;;;;8330499;28;20239;-70
2022/12/16 01:28:43;;;;;;;82.70;28.37;;;;;-0.30;94823.00;;;;8331104;28;20586;-70
2022/12/16 01:32:46;;;;;;;87.03;30.37;;;;;-0.30;94820.00;;;;8330887;28;20233;-69
2022/12/16 01:36:51;;;;;;;70.00;23.07;;;;;-0.30;94828.00;;;;8330325;28;20193;-70
2022/12/16 01:40:54;;;;;;;76.17;25.80;;;;;-0.30;94819.00;;;;8330413;28;20232;-69
2022/12/16 01:45:18;;;;;;;81.57;27.17;;;;;-0.30;94834.00;;;;8329750;28;20232;-69
2022/12/16 01:49:25;;;;;;;61.70;22.67;;;;;-0.30;94821.00;;;;8333509;28;20245;-69
2022/12/16 01:53:30;;;;;;;66.70;24.20;;;;;-0.30;94822.00;;;;8336586;28;20193;-69
2022/12/16 01:57:40;;;;;;;67.90;22.83;;;;;-0.30;94826.00;;;;8336226;28;20556;-69
2022/12/16 02:01:43;;;;;;;66.17;22.37;;;;;-0.30;94834.00;;;;8336520;28;20221;-70
2022/12/16 02:05:48;;;;;;;57.50;20.43;;;;;-0.30;94836.00;;;;8334005;28;20218;-70
2022/12/16 02:09:52;;;;;;;62.80;22.37;;;;;-0.20;94846.00;;;;8335841;28;20235;-70
2022/12/16 02:14:22;;;;;;;74.80;22.23;;;;;-0.20;94845.00;;;;8335962;28;20547;-70
2022/12/16 02:19:02;;;;;;;82.20;26.77;;;;;-0.20;94842.00;;;;8335266;28;20285;-70
2022/12/16 02:23:25;;;;;;;68.47;22.73;;;;;-0.20;94844.00;;;;8335263;28;20195;-70
2022/12/16 02:27:56;;;;;;;74.60;26.40;;;;;-0.20;94837.00;;;;8335924;28;20550;-71
2022/12/16 02:32:08;;;;;;;68.63;24.80;;;;;-0.30;94846.00;;;;8335010;28;20194;-71
2022/12/16 02:36:19;;;;;;;73.83;23.80;;;;;-0.20;94857.00;;;;8335768;28;20220;-72
2022/12/16 02:40:27;;;;;;;70.67;24.87;;;;;-0.30;94875.00;;;;8334876;28;20250;-73
2022/12/16 02:44:41;;;;;;;68.43;20.50;;;;;-0.30;94870.00;;;;8334438;28;20259;-70
2022/12/16 02:48:46;;;;;;;84.63;28.40;;;;;-0.30;94859.00;;;;8333690;28;20193;-69
2022/12/16 02:52:50;;;;;;;70.47;23.40;;;;;-0.40;94874.00;;;;8334431;28;20201;-69
2022/12/16 02:57:07;;;;;;;69.63;24.17;;;;;-0.30;94889.00;;;;8334417;28;20198;-70
2022/12/16 03:05:19;;;;;;;69.20;24.23;;;;;-0.40;94905.00;;;;8239995;28;20222;-69
2022/12/16 03:09:28;;;;;;;90.63;27.17;;;;;-0.40;94897.00;;;;8254104;28;20211;-69
2022/12/16 03:13:35;;;;;;;81.90;26.93;;;;;-0.40;94901.00;;;;8252788;28;20282;-70
2022/12/16 03:17:39;;;;;;;62.90;22.73;;;;;-0.40;94910.00;;;;8250048;28;20208;-68
2022/12/16 03:21:49;;;;;;;84.30;28.00;;;;;-0.40;94913.00;;;;8252689;28;20286;-68
2022/12/16 03:25:56;;;;;;;56.07;19.20;;;;;-0.40;94897.00;;;;8252161;28;20207;-68
2022/12/16 03:30:05;;;;;;;82.50;23.40;;;;;-0.40;94892.00;;;;8252491;28;20195;-68
2022/12/16 03:34:16;;;;;;;53.63;17.63;;;;;-0.40;94896.00;;;;8247458;28;20219;-68
2022/12/16 03:38:22;;;;;;;51.57;17.73;;;;;-0.50;94889.00;;;;8251355;28;20203;-69
2022/12/16 03:42:26;;;;;;;44.10;13.83;;;;;-0.50;94895.00;;;;8253957;28;20282;-68
2022/12/16 03:46:29;;;;;;;47.67;15.43;;;;;-0.50;94896.00;;;;8244988;28;20600;-67
2022/12/16 03:50:34;;;;;;;60.07;23.10;;;;;-0.60;94904.00;;;;8252065;28;20209;-68
2022/12/16 03:54:38;;;;;;;70.53;24.77;;;;;-0.70;94908.00;;;;8249667;28;20217;-68
2022/12/16 03:58:41;;;;;;;52.37;17.43;;;;;-0.70;94912.00;;;;8249046;28;20262;-68
2022/12/16 04:02:45;;;;;;;88.67;27.77;;;;;-0.70;94916.00;;;;8265427;28;20695;-68
2022/12/16 04:07:19;;;;;;;63.07;22.23;;;;;-0.70;94909.00;;;;8276824;28;20354;-68
2022/12/16 04:24:23;;;;;;;73.57;23.33;;;;;-0.70;94909.00;;;;8284734;28;20796;-68
2022/12/16 04:28:33;;;;;;;61.87;19.97;;;;;-0.70;94923.00;;;;8276735;28;20576;-68
